Terminal Aerodrome Forecast
Issued by NWS Sioux Falls, SD

Home | Current Version | Previous Version | Graphics & Text | Print | Product List | Glossary On
Versions: 1 2 3 4 5 6 7 8 9 10 11 12 13 14 15 16 17 18 19 20
462
FTUS43 KFSD 201041 AAB
TAFFSD
TAF AMD
KFSD 201041Z 2011/2106 01009KT 3SM -SN OVC010
      TEMPO 2011/2012 1SM -SN
     FM201200 36011KT 3SM -SN OVC020
     FM201500 33013G20KT P6SM BKN030
     FM210100 31010KT P6SM SCT060=

USA.gov is the U.S. government's official web portal to all federal, state and local government web resources and services.